Terminal Aerodrome Forecast
Issued by NWS Portland, OR

Current Version | Previous Version | Text Only | Print | Product List | Glossary On
Versions: 1 2 3 4 5 6 7 8 9 10 11 12 13 14 15 16 17 18
000
FTUS46 KPQR 261120
TAFHIO
TAF
KHIO 261120Z 2612/2712 13003KT P6SM VCSH BKN040 OVC080
     FM261500 14007KT P6SM -RA SCT025 OVC040
     FM262000 17008KT 6SM -RA BR BKN025 OVC040
     FM270000 20005KT P6SM -SHRA SCT025 BKN040=

USA.gov is the U.S. government's official web portal to all federal, state and local government web resources and services.